Time;durP1;ratioP1;P1;durP2;ratioP2;P2;SDS_P1;SDS_P2;PMS_P1;PMS_P2;Temp;Humidity;BMP_temperature;BMP_pressure;BME280_temperature;BME280_humidity;BME280_pressure;Samples;Min_cycle;Max_cycle;Signal;HPM_P1;HPM_P2
2021/12/12 00:08:52;;;;;;;9.43;5.38;;;;;;;;;;20916397;28;20048;-56
2021/12/12 00:18:55;;;;;;;;;;;;;;;;;;20916387;28;20049;-57
2021/12/12 00:28:58;;;;;;;12.75;7.70;;;;;;;;;;20914419;28;19921;-56
2021/12/12 00:39:05;;;;;;;12.88;7.72;;;;;;;;;;20914944;28;20045;-55
2021/12/12 00:49:07;;;;;;;18.15;9.07;;;;;;;;;;20912309;28;20056;-59
2021/12/12 00:59:10;;;;;;;8.88;5.20;;;;;;;;;;20913638;28;20052;-58
2021/12/12 01:09:29;;;;;;;25.13;8.68;;;;;;;;;;20911892;28;20084;-61
2021/12/12 01:19:33;;;;;;;14.35;5.82;;;;;;;;;;20913214;28;20057;-55
2021/12/12 01:29:38;;;;;;;23.92;6.80;;;;;;;;;;20912037;28;20088;-55
2021/12/12 01:39:44;;;;;;;6.77;2.83;;;;;;;;;;20911933;28;20044;-57
2021/12/12 01:49:47;;;;;;;;;;;;;;;;;;20911373;28;20506;-56
2021/12/12 01:59:51;;;;;;;11.82;6.55;;;;;;;;;;20915461;28;19920;-59
2021/12/12 02:09:54;;;;;;;7.75;4.95;;;;;;;;;;20926367;28;20056;-58
2021/12/12 02:40:30;;;;;;;5.57;4.13;;;;;;;;;;20923611;28;19976;-62
2021/12/12 02:50:34;;;;;;;6.22;3.47;;;;;;;;;;20922377;28;20123;-61
2021/12/12 03:01:06;;;;;;;4.50;3.17;;;;;;;;;;20922581;28;20182;-59
2021/12/12 03:11:21;;;;;;;4.35;2.90;;;;;;;;;;20921271;28;20048;-61
2021/12/12 03:21:45;;;;;;;5.30;3.15;;;;;;;;;;20920886;28;20056;-60
2021/12/12 03:32:11;;;;;;;4.55;3.22;;;;;;;;;;20919513;28;20057;-59
2021/12/12 03:42:33;;;;;;;6.68;3.17;;;;;;;;;;20918347;28;20052;-59
2021/12/12 03:52:55;;;;;;;6.15;3.42;;;;;;;;;;20917306;28;20114;-60
2021/12/12 04:03:16;;;;;;;5.55;3.42;;;;;;;;;;20917058;28;20132;-60
2021/12/12 04:13:38;;;;;;;4.38;3.38;;;;;;;;;;20916123;28;20080;-59
2021/12/12 04:23:50;;;;;;;4.97;3.35;;;;;;;;;;20915899;28;20446;-60
2021/12/12 04:34:11;;;;;;;5.63;3.80;;;;;;;;;;20916209;28;20053;-59
2021/12/12 04:44:36;;;;;;;5.57;3.70;;;;;;;;;;20914092;28;20056;-59
2021/12/12 04:55:02;;;;;;;6.07;3.22;;;;;;;;;;20914033;28;20065;-56
2021/12/12 05:05:23;;;;;;;7.97;4.63;;;;;;;;;;20913605;28;20056;-60
2021/12/12 05:15:42;;;;;;;5.97;3.40;;;;;;;;;;20913650;28;20126;-59
2021/12/12 05:25:56;;;;;;;6.57;3.85;;;;;;;;;;20914198;28;20083;-55
2021/12/12 05:36:06;;;;;;;6.53;3.95;;;;;;;;;;20918725;28;20052;-56
2021/12/12 05:46:15;;;;;;;6.25;3.45;;;;;;;;;;20927984;28;20510;-59
2021/12/12 05:56:24;;;;;;;7.30;3.67;;;;;;;;;;20929304;28;20144;-61
2021/12/12 06:06:29;;;;;;;4.60;3.05;;;;;;;;;;20927108;28;20478;-61
2021/12/12 06:16:33;;;;;;;4.32;3.22;;;;;;;;;;20925646;28;20048;-54
2021/12/12 06:26:38;;;;;;;4.93;3.10;;;;;;;;;;20925355;28;20128;-58
2021/12/12 06:36:42;;;;;;;5.78;2.85;;;;;;;;;;20924567;28;20091;-55
2021/12/12 06:46:48;;;;;;;6.18;3.63;;;;;;;;;;20922004;28;20061;-54
2021/12/12 06:56:52;;;;;;;6.32;4.13;;;;;;;;;;20922618;28;20049;-53
2021/12/12 07:06:57;;;;;;;5.95;4.07;;;;;;;;;;20921478;28;20136;-54
2021/12/12 07:17:01;;;;;;;6.32;4.53;;;;;;;;;;20921424;28;20141;-54
2021/12/12 07:27:06;;;;;;;6.82;4.05;;;;;;;;;;20919660;28;20053;-54
2021/12/12 07:37:09;;;;;;;5.30;3.60;;;;;;;;;;20919827;28;20106;-53
2021/12/12 07:47:14;;;;;;;6.78;4.20;;;;;;;;;;20917901;28;20479;-54
2021/12/12 07:57:36;;;;;;;6.47;4.15;;;;;;;;;;20918359;28;20053;-54
2021/12/12 08:07:58;;;;;;;6.32;3.60;;;;;;;;;;20917182;28;20060;-56
2021/12/12 08:18:20;;;;;;;6.18;4.18;;;;;;;;;;20916962;28;20045;-57
2021/12/12 08:28:43;;;;;;;5.22;3.75;;;;;;;;;;20914859;28;20049;-56
2021/12/12 08:39:06;;;;;;;7.28;4.68;;;;;;;;;;20915475;28;20411;-58
2021/12/12 08:49:29;;;;;;;7.15;4.53;;;;;;;;;;20913864;28;20057;-59
2021/12/12 08:59:49;;;;;;;22.85;13.23;;;;;;;;;;20913249;28;20131;-54
2021/12/12 09:10:21;;;;;;;10.35;7.05;;;;;;;;;;20911432;28;20064;-54
2021/12/12 09:20:47;;;;;;;15.82;8.90;;;;;;;;;;20912626;28;20491;-55
2021/12/12 09:31:04;;;;;;;12.70;8.98;;;;;;;;;;20910882;28;20149;-56
2021/12/12 09:41:23;;;;;;;9.80;6.13;;;;;;;;;;20911411;28;20091;-58
2021/12/12 09:51:45;;;;;;;8.48;5.60;;;;;;;;;;20909588;28;20126;-56
2021/12/12 10:02:08;;;;;;;6.63;4.35;;;;;;;;;;20911330;28;20045;-55
2021/12/12 10:12:19;;;;;;;6.57;5.00;;;;;;;;;;20910856;28;20138;-55
2021/12/12 10:22:41;;;;;;;7.13;5.53;;;;;;;;;;20915148;28;20047;-56
2021/12/12 10:32:48;;;;;;;5.78;4.45;;;;;;;;;;20924282;28;20048;-57
2021/12/12 10:42:57;;;;;;;4.75;3.83;;;;;;;;;;20922959;28;20053;-59
2021/12/12 10:53:05;;;;;;;6.45;4.32;;;;;;;;;;20922499;28;20139;-58
2021/12/12 11:03:17;;;;;;;7.32;4.65;;;;;;;;;;20921242;28;20064;-60
2021/12/12 11:13:31;;;;;;;7.05;5.25;;;;;;;;;;20920762;28;20053;-58
2021/12/12 11:23:42;;;;;;;6.90;4.57;;;;;;;;;;20920458;28;20526;-58
2021/12/12 11:33:48;;;;;;;7.18;5.72;;;;;;;;;;20917148;28;20045;-56
2021/12/12 11:44:07;;;;;;;5.38;4.50;;;;;;;;;;20916807;28;20103;-56
2021/12/12 11:54:18;;;;;;;7.38;5.15;;;;;;;;;;20916323;28;20057;-61
2021/12/12 12:04:36;;;;;;;5.93;4.93;;;;;;;;;;20916139;28;20053;-56
2021/12/12 12:15:01;;;;;;;5.13;4.10;;;;;;;;;;20915334;28;20180;-55
2021/12/12 12:25:27;;;;;;;5.28;4.15;;;;;;;;;;20914436;28;20136;-55
2021/12/12 12:35:50;;;;;;;8.48;4.20;;;;;;;;;;20914208;28;20475;-62
2021/12/12 12:46:11;;;;;;;5.82;4.68;;;;;;;;;;20912461;28;20049;-59
2021/12/12 12:56:36;;;;;;;9.05;7.15;;;;;;;;;;20912473;28;20052;-59
2021/12/12 13:06:45;;;;;;;5.97;4.75;;;;;;;;;;20910663;28;20079;-58
2021/12/12 13:16:55;;;;;;;7.45;5.68;;;;;;;;;;20911549;28;20056;-60
2021/12/12 13:27:28;;;;;;;7.30;5.45;;;;;;;;;;20911975;28;20049;-59
2021/12/12 13:37:50;;;;;;;18.67;11.60;;;;;;;;;;20911528;28;20128;-60
2021/12/12 13:48:12;;;;;;;7.07;5.65;;;;;;;;;;20910150;28;20111;-58
2021/12/12 13:58:23;;;;;;;6.97;5.10;;;;;;;;;;20918350;28;20052;-60
2021/12/12 14:08:32;;;;;;;8.90;5.85;;;;;;;;;;20924745;28;20068;-60
2021/12/12 14:18:43;;;;;;;7.72;5.55;;;;;;;;;;20924840;28;20055;-59
2021/12/12 14:28:49;;;;;;;10.82;6.18;;;;;;;;;;20924162;28;20045;-60
2021/12/12 14:38:53;;;;;;;10.38;5.70;;;;;;;;;;20924305;28;20048;-60
2021/12/12 14:49:07;;;;;;;6.82;4.82;;;;;;;;;;20922574;28;20060;-55
2021/12/12 14:59:12;;;;;;;7.15;5.53;;;;;;;;;;20922399;28;20470;-57
2021/12/12 15:09:20;;;;;;;10.27;7.03;;;;;;;;;;20920012;28;20056;-58
2021/12/12 15:19:28;;;;;;;7.93;5.75;;;;;;;;;;20920236;28;20060;-62
2021/12/12 15:29:31;;;;;;;13.02;7.10;;;;;;;;;;20920241;28;20053;-59
2021/12/12 15:39:43;;;;;;;10.73;7.07;;;;;;;;;;20919815;28;20107;-60
2021/12/12 15:49:47;;;;;;;8.32;6.57;;;;;;;;;;20917495;28;20053;-59
2021/12/12 15:59:54;;;;;;;10.13;7.78;;;;;;;;;;20917324;28;20076;-55
2021/12/12 16:10:16;;;;;;;9.57;7.55;;;;;;;;;;20916855;28;20131;-56
2021/12/12 16:20:21;;;;;;;12.35;8.10;;;;;;;;;;20915377;28;20045;-55
2021/12/12 16:30:30;;;;;;;11.25;7.90;;;;;;;;;;20915368;28;20142;-61
2021/12/12 16:40:37;;;;;;;11.50;8.70;;;;;;;;;;20914722;28;20045;-60
2021/12/12 16:50:44;;;;;;;14.00;9.90;;;;;;;;;;20911730;28;20067;-62
2021/12/12 17:00:50;;;;;;;15.68;8.23;;;;;;;;;;20913627;28;20072;-62
2021/12/12 17:10:56;;;;;;;13.30;10.63;;;;;;;;;;20912916;28;20482;-60
2021/12/12 17:21:07;;;;;;;13.30;10.40;;;;;;;;;;20911898;28;20075;-61
2021/12/12 17:31:12;;;;;;;16.23;9.65;;;;;;;;;;20917052;28;20057;-61
2021/12/12 17:41:15;;;;;;;;;;;;;;;;;;20928851;28;20052;-63
2021/12/12 17:51:24;;;;;;;26.05;16.88;;;;;;;;;;20927256;28;19921;-60
2021/12/12 18:01:36;;;;;;;18.17;11.68;;;;;;;;;;20926998;28;20045;-62
2021/12/12 18:11:44;;;;;;;18.52;10.40;;;;;;;;;;20926982;28;20104;-61
2021/12/12 18:21:53;;;;;;;22.92;12.07;;;;;;;;;;20902814;28;20141;-62
2021/12/12 18:31:57;;;;;;;35.22;16.98;;;;;;;;;;20843121;28;20435;-61
2021/12/12 18:42:02;;;;;;;29.63;14.60;;;;;;;;;;20841286;28;20049;-63
2021/12/12 18:52:10;;;;;;;22.80;13.57;;;;;;;;;;20840569;28;20072;-61
2021/12/12 19:02:17;;;;;;;28.67;14.15;;;;;;;;;;20840702;28;20554;-57
2021/12/12 19:12:29;;;;;;;27.10;15.10;;;;;;;;;;20838486;28;20060;-60
2021/12/12 19:22:33;;;;;;;29.02;17.08;;;;;;;;;;20838215;28;20046;-56
2021/12/12 19:32:37;;;;;;;22.75;14.98;;;;;;;;;;20837655;28;20053;-57
2021/12/12 19:42:41;;;;;;;17.25;10.02;;;;;;;;;;20836593;28;20458;-56
2021/12/12 19:52:44;;;;;;;18.20;9.60;;;;;;;;;;20835505;28;20130;-62
2021/12/12 20:02:47;;;;;;;15.48;9.43;;;;;;;;;;20835517;28;20045;-58
2021/12/12 20:12:54;;;;;;;12.13;7.13;;;;;;;;;;20834987;28;20419;-55
2021/12/12 20:22:59;;;;;;;10.63;6.55;;;;;;;;;;20835267;28;20415;-58
2021/12/12 20:33:12;;;;;;;14.70;8.60;;;;;;;;;;20848901;28;20392;-59
2021/12/12 20:43:18;;;;;;;10.27;4.78;;;;;;;;;;20847918;28;20065;-58
2021/12/12 20:53:23;;;;;;;9.68;5.85;;;;;;;;;;20831555;28;20506;-57
2021/12/12 21:03:27;;;;;;;9.13;5.93;;;;;;;;;;20830393;28;20079;-60
2021/12/12 21:13:31;;;;;;;8.20;6.00;;;;;;;;;;20831732;28;20060;-61
2021/12/12 21:23:37;;;;;;;10.38;5.63;;;;;;;;;;20830187;28;20510;-55
2021/12/12 21:33:55;;;;;;;7.90;6.30;;;;;;;;;;20829818;28;20440;-59
2021/12/12 21:43:57;;;;;;;8.77;6.57;;;;;;;;;;20845411;28;20049;-58
2021/12/12 21:54:00;;;;;;;8.85;6.65;;;;;;;;;;20829124;28;20057;-60
2021/12/12 22:04:03;;;;;;;8.95;6.13;;;;;;;;;;20829160;28;20411;-56
2021/12/12 22:14:07;;;;;;;8.75;6.22;;;;;;;;;;20828669;28;20349;-57
2021/12/12 22:24:15;;;;;;;7.70;6.10;;;;;;;;;;20842369;28;20081;-58
2021/12/12 22:34:20;;;;;;;10.30;7.03;;;;;;;;;;20841778;28;20050;-57
2021/12/12 22:44:25;;;;;;;11.80;8.10;;;;;;;;;;20840932;28;20049;-59
2021/12/12 22:54:36;;;;;;;10.55;7.63;;;;;;;;;;20840479;28;20050;-59
2021/12/12 23:04:53;;;;;;;11.95;7.82;;;;;;;;;;20840870;28;20057;-56
2021/12/12 23:14:59;;;;;;;10.05;7.78;;;;;;;;;;20839014;28;20060;-56
2021/12/12 23:25:06;;;;;;;11.02;7.25;;;;;;;;;;20838599;28;20491;-63
2021/12/12 23:35:18;;;;;;;11.75;8.30;;;;;;;;;;20837545;28;20096;-62
2021/12/12 23:45:25;;;;;;;10.80;7.40;;;;;;;;;;20836260;28;20089;-59
2021/12/12 23:55:47;;;;;;;9.02;6.88;;;;;;;;;;20835712;28;20077;-61
